Time;durP1;ratioP1;P1;durP2;ratioP2;P2;SDS_P1;SDS_P2;PMS_P1;PMS_P2;Temp;Humidity;BMP_temperature;BMP_pressure;BME280_temperature;BME280_humidity;BME280_pressure;Samples;Min_cycle;Max_cycle;Signal;HPM_P1;HPM_P2
2023/07/06 00:02:22;;;;;;;;;7.50;7.00;;;;;19.77;57.98;101309.00;4959489;28;45361;-64
2023/07/06 00:04:48;;;;;;;;;7.25;7.25;;;;;19.79;58.26;101318.75;4960142;28;45404;-64
2023/07/06 00:07:20;;;;;;;;;6.00;6.00;;;;;19.74;57.67;101314.56;4960661;28;45275;-64
2023/07/06 00:09:46;;;;;;;;;7.00;7.00;;;;;19.77;58.33;101318.00;4968467;28;45611;-63
2023/07/06 00:12:11;;;;;;;;;6.75;6.75;;;;;19.70;58.34;101310.34;4959729;28;45270;-63
2023/07/06 00:14:37;;;;;;;;;6.00;5.25;;;;;19.76;58.45;101323.50;4959553;28;45465;-64
2023/07/06 00:17:12;;;;;;;;;5.25;5.25;;;;;19.73;58.81;101319.13;4955377;28;45300;-64
2023/07/06 00:19:38;;;;;;;;;7.00;7.00;;;;;19.69;58.83;101314.00;4973787;28;47463;-64
2023/07/06 00:22:04;;;;;;;;;5.25;5.25;;;;;19.65;58.63;101318.72;4959713;28;45263;-64
2023/07/06 00:24:29;;;;;;;;;5.00;5.00;;;;;19.65;59.25;101317.88;4959703;28;45254;-63
2023/07/06 00:26:54;;;;;;;;;6.50;6.25;;;;;19.62;58.81;101324.31;4957137;28;58122;-64
2023/07/06 00:29:20;;;;;;;;;8.25;8.25;;;;;19.61;59.15;101326.19;4963052;28;61782;-64
2023/07/06 00:31:53;;;;;;;;;7.25;7.25;;;;;19.64;59.25;101327.81;4959488;28;45275;-63
2023/07/06 00:34:19;;;;;;;;;8.00;8.00;;;;;19.60;59.01;101316.28;4959677;28;45439;-64
2023/07/06 00:36:48;;;;;;;;;10.00;7.75;;;;;19.62;59.42;101327.03;4957049;28;45744;-64
2023/07/06 00:39:14;;;;;;;;;9.00;8.50;;;;;19.59;59.67;101324.50;4959519;28;46129;-64
2023/07/06 00:41:39;;;;;;;;;5.00;5.00;;;;;19.55;59.80;101325.69;4963713;28;45303;-64
2023/07/06 00:44:05;;;;;;;;;7.25;7.25;;;;;19.54;59.79;101332.91;4959220;28;45410;-64
2023/07/06 00:46:39;;;;;;;;;7.25;6.25;;;;;19.49;60.05;101323.34;4958481;28;45333;-64
2023/07/06 00:49:15;;;;;;;;;5.25;5.00;;;;;19.50;59.87;101328.66;4952340;28;46206;-64
2023/07/06 00:51:40;;;;;;;;;8.25;7.25;;;;;19.47;60.13;101331.56;4957532;28;45450;-64
2023/07/06 00:54:10;;;;;;;;;6.75;6.75;;;;;19.43;60.01;101327.28;4957989;28;45499;-64
2023/07/06 00:56:42;;;;;;;;;7.00;6.00;;;;;19.44;60.24;101334.44;4958716;28;45616;-64
2023/07/06 00:59:11;;;;;;;;;5.75;5.75;;;;;19.39;60.77;101341.97;4961654;28;46288;-64
2023/07/06 01:01:42;;;;;;;;;11.75;7.00;;;;;19.38;60.36;101342.94;4962527;28;45461;-64
2023/07/06 01:04:11;;;;;;;;;6.25;5.00;;;;;19.34;60.44;101339.53;4961742;28;45769;-64
2023/07/06 01:06:47;;;;;;;;;2.00;2.00;;;;;19.33;60.66;101336.91;4961802;28;45682;-63
2023/07/06 01:09:14;;;;;;;;;2.00;1.00;;;;;19.30;60.39;101342.53;4971372;28;45419;-63
2023/07/06 01:11:41;;;;;;;;;3.25;3.25;;;;;19.28;60.35;101341.72;4962214;28;45337;-64
2023/07/06 01:14:12;;;;;;;;;3.75;3.75;;;;;19.26;60.28;101336.41;4958120;28;45420;-64
2023/07/06 01:17:05;;;;;;;;;5.00;5.00;;;;;19.31;60.19;101345.16;4956771;28;45560;-63
2023/07/06 01:19:45;;;;;;;;;4.50;4.50;;;;;19.29;60.06;101341.63;4962282;28;46073;-64
2023/07/06 01:22:48;;;;;;;;;5.00;4.00;;;;;19.29;60.48;101341.63;4949140;28;45571;-64
2023/07/06 01:25:23;;;;;;;;;7.50;5.75;;;;;19.27;60.62;101337.28;4962107;28;45569;-64
2023/07/06 01:28:10;;;;;;;;;4.50;4.00;;;;;19.26;60.30;101341.81;4965468;28;45484;-64
2023/07/06 01:31:02;;;;;;;;;5.00;5.00;;;;;19.27;60.47;101337.28;4961939;28;45479;-64
2023/07/06 01:33:36;;;;;;;;;5.50;5.25;;;;;19.23;60.19;101337.47;4957658;28;45326;-63
2023/07/06 01:36:08;;;;;;;;;5.00;5.00;;;;;19.21;60.47;101339.41;4962056;28;45474;-64
2023/07/06 01:38:34;;;;;;;;;4.25;4.25;;;;;19.20;60.62;101337.66;4960105;28;45310;-64
2023/07/06 01:40:59;;;;;;;;;6.50;6.50;;;;;19.17;60.63;101336.97;4965809;28;47035;-64
2023/07/06 01:43:26;;;;;;;;;3.00;2.50;;;;;19.17;60.78;101339.66;4960910;28;45318;-63
2023/07/06 01:45:53;;;;;;;;;6.00;5.00;;;;;19.14;60.70;101326.31;4956341;28;45312;-63
2023/07/06 01:48:20;;;;;;;;;4.00;4.00;;;;;19.07;60.80;101320.41;4960346;28;45661;-64
2023/07/06 01:50:51;;;;;;;;;4.75;4.75;;;;;19.11;60.63;101330.09;4970745;28;46217;-64
2023/07/06 01:53:33;;;;;;;;;4.50;4.50;;;;;19.05;60.92;101317.78;4961927;28;45593;-64
2023/07/06 01:56:07;;;;;;;;;6.25;6.00;;;;;18.99;61.06;101306.44;4955361;28;45318;-64
2023/07/06 01:58:43;;;;;;;;;5.00;5.00;;;;;18.98;60.60;101319.09;4959670;28;45444;-64
2023/07/06 02:01:13;;;;;;;;;4.00;4.00;;;;;19.05;60.94;101334.00;4933076;28;45365;-64
2023/07/06 02:03:41;;;;;;;;;4.00;4.00;;;;;19.02;60.92;101322.50;4961611;28;45567;-64
2023/07/06 02:06:08;;;;;;;;;5.75;5.75;;;;;18.98;61.05;101319.09;4961906;28;45388;-64
2023/07/06 02:08:41;;;;;;;;;7.00;4.00;;;;;19.02;60.75;101327.91;4971313;28;45322;-64
2023/07/06 02:11:07;;;;;;;;;4.00;3.00;;;;;19.03;60.88;101321.56;4961486;28;45437;-64
2023/07/06 02:13:32;;;;;;;;;4.75;4.00;;;;;18.93;60.79;101306.78;4961158;28;45371;-64
2023/07/06 02:15:58;;;;;;;;;6.25;5.25;;;;;18.98;60.70;101319.09;4959553;28;45555;-64
2023/07/06 02:18:24;;;;;;;;;4.00;3.25;;;;;18.99;60.77;101317.25;4960766;28;45234;-64
2023/07/06 02:20:49;;;;;;;;;6.00;4.25;;;;;18.88;60.78;101297.13;4961296;28;45960;-63
2023/07/06 02:23:14;;;;;;;;;7.00;6.25;;;;;18.94;60.41;101308.56;4961318;28;45349;-63
2023/07/06 02:25:41;;;;;;;;;4.25;4.00;;;;;18.96;60.79;101306.63;4961432;28;45500;-64
2023/07/06 02:28:08;;;;;;;;;5.00;5.00;;;;;18.90;60.80;101305.16;4964489;28;45530;-64
2023/07/06 02:30:34;;;;;;;;;10.00;6.00;;;;;18.92;60.57;101305.94;4961124;28;45996;-64
2023/07/06 02:32:59;;;;;;;;;4.00;4.00;;;;;18.91;60.44;101308.72;4961190;28;45323;-63
2023/07/06 02:35:25;;;;;;;;;4.00;4.00;;;;;18.85;60.61;101294.59;4961270;28;45386;-64
2023/07/06 02:37:50;;;;;;;;;8.00;5.75;;;;;18.87;60.63;101298.09;4957269;28;45501;-64
2023/07/06 02:40:17;;;;;;;;;5.50;5.00;;;;;18.92;60.72;101315.88;4943550;28;45447;-64
2023/07/06 02:42:42;;;;;;;;;6.25;5.50;;;;;18.87;60.81;101308.03;4963712;28;45370;-64
2023/07/06 02:45:09;;;;;;;;;7.25;6.00;;;;;18.87;61.10;101317.00;4954242;28;45919;-64
2023/07/06 02:47:36;;;;;;;;;8.00;6.00;;;;;18.82;60.98;101313.69;4960723;28;45266;-64
2023/07/06 02:50:02;;;;;;;;;11.50;7.50;;;;;18.83;61.26;101320.00;4966290;28;46355;-64
2023/07/06 02:52:27;;;;;;;;;6.25;5.50;;;;;18.83;60.99;101326.28;4964987;28;45396;-64
2023/07/06 02:54:53;;;;;;;;;6.50;6.50;;;;;18.81;60.97;101322.78;4959872;28;48542;-64
2023/07/06 02:57:19;;;;;;;;;7.00;6.25;;;;;18.78;61.04;101325.66;4959017;28;45849;-64
2023/07/06 02:59:44;;;;;;;;;4.25;4.00;;;;;18.83;61.08;101328.13;4960627;28;45424;-64
2023/07/06 03:02:09;;;;;;;;;6.00;6.00;;;;;18.78;61.03;101328.34;4960308;28;51878;-64
2023/07/06 03:04:36;;;;;;;;;6.25;6.00;;;;;18.81;60.82;101328.19;4959683;28;57897;-64
2023/07/06 03:07:01;;;;;;;;;7.00;5.75;;;;;18.77;60.95;101326.59;4959613;28;45417;-64
2023/07/06 03:09:27;;;;;;;;;7.00;6.00;;;;;18.81;61.09;101330.88;4971489;28;46475;-64
2023/07/06 03:11:52;;;;;;;;;7.75;7.00;;;;;18.75;61.14;101319.53;4960583;28;45481;-64
2023/07/06 03:14:21;;;;;;;;;7.00;6.00;;;;;18.81;61.01;101330.88;4960542;28;45523;-64
2023/07/06 03:16:48;;;;;;;;;7.50;5.00;;;;;18.80;60.92;101330.97;4952074;28;45410;-64
2023/07/06 03:19:13;;;;;;;;;9.25;6.00;;;;;18.80;61.20;101329.13;4960440;28;45476;-64
2023/07/06 03:21:39;;;;;;;;;6.25;6.25;;;;;18.79;60.80;101331.91;4960203;28;45565;-64
2023/07/06 03:24:08;;;;;;;;;6.00;5.00;;;;;18.74;61.12;101320.50;4958745;28;45374;-64
2023/07/06 03:26:34;;;;;;;;;9.00;8.75;;;;;18.75;61.11;101325.81;4959373;28;45523;-64
2023/07/06 03:29:01;;;;;;;;;7.00;6.00;;;;;18.71;61.51;101324.25;4958677;28;48046;-63
2023/07/06 03:31:29;;;;;;;;;5.50;5.50;;;;;18.76;61.29;101326.69;4960302;28;45684;-64
2023/07/06 03:33:55;;;;;;;;;6.00;5.00;;;;;18.73;61.28;101326.84;4960425;28;45356;-64
2023/07/06 03:36:21;;;;;;;;;9.75;6.00;;;;;18.68;61.05;101325.28;4957344;28;45565;-64
2023/07/06 03:38:49;;;;;;;;;8.50;7.00;;;;;18.69;61.59;101334.28;4950063;28;47005;-64
2023/07/06 03:41:16;;;;;;;;;5.00;3.75;;;;;18.59;61.35;101311.44;4959837;28;45517;-64
2023/07/06 03:43:42;;;;;;;;;7.00;7.00;;;;;18.68;61.18;101341.53;4942541;28;45639;-64
2023/07/06 03:46:07;;;;;;;;;5.50;5.50;;;;;18.67;61.64;101339.75;4959224;28;45432;-64
2023/07/06 03:48:32;;;;;;;;;7.25;5.00;;;;;18.55;61.40;101323.38;4952787;28;45446;-64
2023/07/06 03:51:04;;;;;;;;;5.00;5.00;;;;;18.62;61.67;101346.41;4951566;28;45328;-63
2023/07/06 03:53:32;;;;;;;;;7.00;5.75;;;;;18.53;61.42;101323.47;4960198;28;45380;-64
2023/07/06 03:55:58;;;;;;;;;10.25;8.00;;;;;18.59;61.62;101336.63;4958705;28;51863;-64
2023/07/06 03:58:24;;;;;;;;;9.25;9.25;;;;;18.59;62.06;101333.06;4959227;28;45653;-64
2023/07/06 04:00:49;;;;;;;;;7.25;6.00;;;;;18.50;62.56;101324.50;4959849;28;45377;-64
2023/07/06 04:03:14;;;;;;;;;8.50;5.50;;;;;18.57;62.34;101332.28;4959992;28;45555;-64
2023/07/06 04:05:44;;;;;;;;;8.25;6.75;;;;;18.61;62.46;101341.94;4958767;28;45460;-64
2023/07/06 04:08:15;;;;;;;;;9.75;9.50;;;;;18.60;62.42;101345.63;4968559;28;46047;-64
2023/07/06 04:10:41;;;;;;;;;8.75;7.75;;;;;18.60;62.55;101341.09;4961112;28;45633;-64
2023/07/06 04:13:08;;;;;;;;;10.00;9.75;;;;;18.60;62.60;101343.78;4959757;28;45384;-64
2023/07/06 04:15:34;;;;;;;;;8.25;5.75;;;;;18.51;62.74;101328.97;4957427;28;45377;-64
2023/07/06 04:18:03;;;;;;;;;8.50;8.50;;;;;18.57;62.75;101340.38;4959534;28;45654;-64
2023/07/06 04:20:29;;;;;;;;;8.75;8.75;;;;;18.52;63.03;101321.72;4959586;28;45614;-64
2023/07/06 04:22:57;;;;;;;;;7.25;5.25;;;;;18.56;63.46;101335.94;4959829;28;45417;-64
2023/07/06 04:25:31;;;;;;;;;9.50;9.25;;;;;18.56;63.25;101341.34;4956055;28;45447;-64
2023/07/06 04:27:57;;;;;;;;;9.25;8.25;;;;;18.56;63.18;101342.22;4959262;28;45566;-63
2023/07/06 04:30:23;;;;;;;;;11.25;10.00;;;;;18.55;63.63;101340.47;4959621;28;45341;-63
2023/07/06 04:32:49;;;;;;;;;7.00;7.00;;;;;18.54;63.29;101337.84;4961745;28;45306;-63
2023/07/06 04:35:17;;;;;;;;;8.75;8.25;;;;;18.53;64.00;101342.41;4962541;28;45472;-64
2023/07/06 04:37:46;;;;;;;;;10.00;7.00;;;;;18.52;63.86;101338.78;4937131;28;47776;-63
2023/07/06 04:40:13;;;;;;;;;9.25;9.25;;;;;18.51;64.09;101339.78;4961504;28;45327;-64
2023/07/06 04:42:41;;;;;;;;;11.00;9.75;;;;;18.45;63.80;101340.13;4962531;28;45618;-64
2023/07/06 04:45:11;;;;;;;;;10.00;9.00;;;;;18.44;64.18;101332.09;4962275;28;45606;-64
2023/07/06 04:47:38;;;;;;;;;11.50;10.00;;;;;18.43;64.26;101335.75;4962439;28;45362;-64
2023/07/06 04:50:08;;;;;;;;;8.50;8.50;;;;;18.46;63.87;101346.38;4962106;28;45364;-64
2023/07/06 04:52:37;;;;;;;;;11.00;9.00;;;;;18.46;64.19;101341.88;4962752;28;45461;-63
2023/07/06 04:55:06;;;;;;;;;9.50;7.25;;;;;18.46;64.78;101347.28;4961914;28;45361;-64
2023/07/06 04:57:31;;;;;;;;;11.25;9.75;;;;;18.37;64.52;101336.97;4957950;28;45429;-64
2023/07/06 04:59:57;;;;;;;;;11.25;10.50;;;;;18.43;64.96;101347.44;4962591;28;45634;-63
2023/07/06 05:02:23;;;;;;;;;12.50;11.25;;;;;18.44;64.90;101349.19;4962550;28;45413;-64
2023/07/06 05:04:49;;;;;;;;;10.50;10.50;;;;;18.45;64.71;101344.66;4962582;28;45444;-64
2023/07/06 05:07:15;;;;;;;;;11.25;11.00;;;;;18.38;64.86;101337.84;4963545;28;45461;-64
2023/07/06 05:09:40;;;;;;;;;9.75;9.00;;;;;18.39;64.72;101331.47;4962321;28;45389;-64
2023/07/06 05:12:07;;;;;;;;;8.75;7.75;;;;;18.46;65.12;101352.69;4962276;28;45537;-64
2023/07/06 05:14:34;;;;;;;;;10.00;9.00;;;;;18.45;64.82;101347.34;4962307;28;45526;-64
2023/07/06 05:17:00;;;;;;;;;11.00;9.25;;;;;18.46;64.88;101351.78;4959799;28;47757;-64
2023/07/06 05:19:27;;;;;;;;;10.50;9.75;;;;;18.48;64.87;101349.91;4962311;28;45606;-64
2023/07/06 05:21:55;;;;;;;;;8.75;8.75;;;;;18.47;64.80;101359.81;4962326;28;45404;-64
2023/07/06 05:24:26;;;;;;;;;6.75;6.50;;;;;18.45;64.12;101347.34;4962278;28;45361;-64
2023/07/06 05:26:51;;;;;;;;;6.00;5.50;;;;;18.48;62.99;101363.41;4961224;28;45349;-64
2023/07/06 05:29:16;;;;;;;;;5.25;5.25;;;;;18.39;62.58;101348.56;4965706;28;51477;-64
2023/07/06 05:31:44;;;;;;;;;11.25;7.75;;;;;18.41;62.85;101346.66;4962092;28;45373;-64
2023/07/06 05:34:10;;;;;;;;;6.25;5.00;;;;;18.50;63.32;101366.91;4962064;28;45467;-64
2023/07/06 05:36:36;;;;;;;;;7.75;5.00;;;;;18.50;63.42;101356.09;4958752;28;45407;-64
2023/07/06 05:39:03;;;;;;;;;7.00;5.50;;;;;18.56;63.61;101360.25;4959767;28;45326;-64
2023/07/06 05:41:28;;;;;;;;;7.75;5.50;;;;;18.44;63.14;101348.31;4960372;28;45507;-63
2023/07/06 05:43:53;;;;;;;;;7.50;6.00;;;;;18.56;62.57;101360.25;4960066;28;48157;-63
2023/07/06 05:46:19;;;;;;;;;9.50;9.50;;;;;18.55;62.02;101363.94;4965244;28;58087;-63
2023/07/06 05:48:44;;;;;;;;;14.00;10.25;;;;;18.52;62.11;101354.16;4960120;28;51199;-63
2023/07/06 05:51:09;;;;;;;;;11.00;9.00;;;;;18.54;62.02;101354.94;4973620;28;45447;-63
2023/07/06 05:53:35;;;;;;;;;11.00;10.00;;;;;18.52;61.88;101357.72;4960464;28;58146;-63
2023/07/06 05:56:00;;;;;;;;;10.25;7.75;;;;;18.56;62.46;101355.75;4961338;28;45430;-63
2023/07/06 05:58:26;;;;;;;;;9.75;9.75;;;;;18.57;62.16;101351.19;4961602;28;45282;-63
2023/07/06 06:00:52;;;;;;;;;9.00;7.75;;;;;18.66;61.51;101366.88;4961740;28;45416;-63
2023/07/06 06:03:19;;;;;;;;;8.75;5.50;;;;;18.65;61.98;101357.91;4960869;28;45289;-63
2023/07/06 06:05:45;;;;;;;;;6.75;5.75;;;;;18.70;62.34;101366.63;4960167;28;46953;-64
2023/07/06 06:08:11;;;;;;;;;4.50;4.50;;;;;18.65;61.84;101352.50;4960092;28;45493;-63
2023/07/06 06:10:37;;;;;;;;;5.00;5.00;;;;;18.69;62.52;101361.31;4961271;28;45548;-63
2023/07/06 06:13:02;;;;;;;;;7.00;5.25;;;;;18.78;62.41;101366.22;4959534;28;45468;-64
2023/07/06 06:15:28;;;;;;;;;6.50;6.00;;;;;18.84;62.19;101373.13;4962292;28;46391;-63
2023/07/06 06:17:53;;;;;;;;;6.25;6.25;;;;;18.84;61.96;101371.31;4960468;28;45607;-63
2023/07/06 06:20:19;;;;;;;;;8.50;7.00;;;;;18.90;61.36;101380.91;4964521;28;45396;-64
2023/07/06 06:22:44;;;;;;;;;5.25;4.00;;;;;18.89;61.17;101371.03;4975019;28;45383;-63
2023/07/06 06:25:10;;;;;;;;;4.75;4.75;;;;;18.86;61.12;101374.78;4955659;28;46617;-64
2023/07/06 06:27:35;;;;;;;;;5.50;3.00;;;;;18.87;61.39;101384.63;4954059;28;45305;-64
2023/07/06 06:30:00;;;;;;;;;3.75;3.00;;;;;18.92;60.50;101386.22;4963407;28;45724;-64
2023/07/06 06:32:26;;;;;;;;;4.75;3.00;;;;;18.93;61.10;101387.94;4953606;28;45330;-64
2023/07/06 06:34:52;;;;;;;;;3.00;3.00;;;;;18.94;61.35;101381.59;4966675;28;45536;-64
2023/07/06 06:37:17;;;;;;;;;4.75;3.25;;;;;19.00;60.84;101389.38;4957304;28;45582;-63
2023/07/06 06:39:43;;;;;;;;;4.00;4.00;;;;;18.97;60.70;101379.56;4960658;28;45521;-63
2023/07/06 06:42:09;;;;;;;;;5.50;2.50;;;;;18.99;60.14;101380.34;4954940;28;45890;-63
2023/07/06 06:44:35;;;;;;;;;5.75;4.00;;;;;19.04;60.58;101391.81;4959162;28;45489;-63
2023/07/06 06:47:04;;;;;;;;;2.75;2.75;;;;;19.04;60.23;101391.81;4958579;28;45310;-64
2023/07/06 06:49:30;;;;;;;;;4.75;4.00;;;;;19.07;60.58;101385.34;4958578;28;45334;-64
2023/07/06 06:51:55;;;;;;;;;5.00;3.50;;;;;19.11;60.34;101386.91;4959243;28;45383;-64
2023/07/06 06:54:20;;;;;;;;;5.00;3.25;;;;;19.12;60.39;101376.97;4941653;28;47669;-64
2023/07/06 06:56:46;;;;;;;;;5.25;4.00;;;;;19.16;60.38;101384.81;4941776;28;45510;-64
2023/07/06 06:59:12;;;;;;;;;5.50;4.50;;;;;19.21;60.62;101398.06;4959748;28;45295;-63
2023/07/06 07:01:38;;;;;;;;;4.50;4.25;;;;;19.27;60.55;101397.69;4957069;28;45541;-64
2023/07/06 07:04:04;;;;;;;;;4.25;4.25;;;;;19.15;59.60;101384.91;4960629;28;46225;-62
2023/07/06 07:06:30;;;;;;;;;5.50;4.75;;;;;19.23;59.96;101394.31;4954481;28;45528;-63
2023/07/06 07:08:57;;;;;;;;;4.50;4.25;;;;;19.27;59.69;101395.00;4958976;28;45454;-63
2023/07/06 07:11:23;;;;;;;;;8.50;4.25;;;;;19.33;60.06;101401.88;4954097;28;45619;-63
2023/07/06 07:13:50;;;;;;;;;5.00;4.75;;;;;19.36;60.07;101402.59;4961600;28;46539;-63
2023/07/06 07:16:15;;;;;;;;;3.75;3.75;;;;;19.42;60.15;101401.34;4961222;28;45509;-63
2023/07/06 07:18:45;;;;;;;;;6.50;4.75;;;;;19.43;59.87;101397.69;4940720;28;45294;-63
2023/07/06 07:21:12;;;;;;;;;9.00;6.50;;;;;19.44;59.49;101394.00;4957950;28;45812;-63
2023/07/06 07:23:46;;;;;;;;;4.75;4.00;;;;;19.55;59.33;101398.78;4954070;28;46523;-63
2023/07/06 07:26:16;;;;;;;;;8.00;6.50;;;;;19.39;58.84;101369.03;4958326;28;45345;-63
2023/07/06 07:28:42;;;;;;;;;5.25;4.00;;;;;19.59;59.03;101401.19;4958683;28;45578;-62
2023/07/06 07:31:11;;;;;;;;;2.25;1.25;;;;;19.59;59.17;101382.25;4956387;28;45538;-63
2023/07/06 07:33:37;;;;;;;;;5.00;5.00;;;;;19.61;58.67;101383.03;4958586;28;45994;-62
2023/07/06 07:36:04;;;;;;;;;4.75;4.50;;;;;19.67;58.51;101392.63;4954799;28;45505;-64
2023/07/06 07:38:29;;;;;;;;;5.00;4.25;;;;;19.67;58.82;101389.91;4950992;28;45495;-62
2023/07/06 07:40:58;;;;;;;;;6.50;4.75;;;;;19.75;58.64;101387.66;4957461;28;45655;-63
2023/07/06 07:43:25;;;;;;;;;4.00;4.00;;;;;19.77;58.96;101385.72;4951477;28;46350;-63
2023/07/06 07:45:53;;;;;;;;;3.50;3.50;;;;;19.79;58.71;101369.38;4958113;28;45909;-63
2023/07/06 07:48:18;;;;;;;;;5.00;5.00;;;;;19.90;58.47;101384.97;4957873;28;45458;-62
2023/07/06 07:50:49;;;;;;;;;6.25;5.75;;;;;19.85;58.11;101366.28;4958814;28;45469;-62
2023/07/06 07:53:14;;;;;;;;;4.75;4.75;;;;;19.98;57.99;101386.25;4958311;28;46977;-62
2023/07/06 07:55:41;;;;;;;;;4.00;3.25;;;;;20.05;57.55;101383.16;4957383;28;55186;-63
2023/07/06 07:58:07;;;;;;;;;4.00;3.75;;;;;20.11;58.15;101388.19;4958430;28;45456;-63
2023/07/06 08:00:34;;;;;;;;;2.50;2.50;;;;;20.20;57.73;101387.63;4958278;28;46291;-63
2023/07/06 08:03:01;;;;;;;;;4.00;4.00;;;;;20.21;57.68;101381.22;4958036;28;46649;-63
2023/07/06 08:05:26;;;;;;;;;5.25;4.25;;;;;20.26;56.86;101372.81;4957182;28;45574;-63
2023/07/06 08:07:51;;;;;;;;;5.50;3.00;;;;;20.37;56.77;101383.84;4962969;28;47918;-63
2023/07/06 08:10:17;;;;;;;;;4.00;4.00;;;;;20.42;56.57;101384.41;4961866;28;45634;-63
2023/07/06 08:12:42;;;;;;;;;3.50;3.50;;;;;20.49;56.53;101387.59;4960574;28;45586;-63
2023/07/06 08:15:08;;;;;;;;;4.50;4.00;;;;;20.54;56.59;101383.63;4960047;28;45438;-63
2023/07/06 08:17:33;;;;;;;;;4.25;4.00;;;;;20.61;56.72;101384.09;4961426;28;45535;-62
2023/07/06 08:19:58;;;;;;;;;4.25;4.25;;;;;20.66;56.49;101383.84;4958175;28;57793;-63
2023/07/06 08:22:23;;;;;;;;;4.00;3.00;;;;;20.66;56.50;101373.84;4959267;28;58399;-63
2023/07/06 08:24:49;;;;;;;;;6.75;5.00;;;;;20.75;55.83;101383.25;4961455;28;45465;-63
2023/07/06 08:27:14;;;;;;;;;3.50;3.50;;;;;20.79;55.53;101378.50;4959701;28;46249;-63
2023/07/06 08:29:43;;;;;;;;;5.00;3.50;;;;;20.78;56.19;101376.75;4965803;28;45638;-63
2023/07/06 08:32:11;;;;;;;;;5.00;5.00;;;;;20.83;55.92;101372.78;4951886;28;47302;-63
2023/07/06 08:34:37;;;;;;;;;6.25;4.50;;;;;20.91;54.70;101378.56;4946348;28;45836;-63
2023/07/06 08:37:02;;;;;;;;;3.00;3.00;;;;;20.97;56.14;101373.72;4959663;28;45741;-63
2023/07/06 08:39:27;;;;;;;;;6.25;5.50;;;;;21.01;55.60;101367.09;4961667;28;45491;-63
2023/07/06 08:41:55;;;;;;;;;4.75;3.00;;;;;21.03;54.77;101359.72;4960961;28;46267;-63
2023/07/06 08:44:21;;;;;;;;;5.00;5.00;;;;;21.09;54.97;101359.31;4960047;28;45619;-63
2023/07/06 08:46:50;;;;;;;;;3.75;3.75;;;;;21.16;54.98;101365.19;4963569;28;45528;-63
2023/07/06 08:49:31;;;;;;;;;4.50;3.00;;;;;21.23;55.17;101366.50;4966016;28;45337;-63
2023/07/06 08:52:05;;;;;;;;;3.50;3.00;;;;;21.32;54.40;101373.16;4960205;28;45514;-63
2023/07/06 08:54:35;;;;;;;;;2.50;2.50;;;;;21.29;54.40;101366.13;4955488;28;45795;-63
2023/07/06 08:57:02;;;;;;;;;4.25;4.25;;;;;21.40;54.11;101373.50;4958140;28;45646;-63
2023/07/06 08:59:40;;;;;;;;;4.00;3.00;;;;;21.43;53.44;101382.34;4963599;28;45470;-63
2023/07/06 09:02:15;;;;;;;;;4.00;4.00;;;;;21.42;53.52;101375.16;4957115;28;45505;-63
2023/07/06 09:04:41;;;;;;;;;3.00;3.00;;;;;21.46;53.16;101370.38;4961080;28;45569;-63
2023/07/06 09:07:12;;;;;;;;;6.25;4.00;;;;;21.47;53.32;101364.03;4959373;28;45457;-63
2023/07/06 09:09:40;;;;;;;;;5.00;4.50;;;;;21.45;52.91;101350.53;4959727;28;45431;-63
2023/07/06 09:12:13;;;;;;;;;3.00;3.00;;;;;21.61;53.66;101379.38;4960487;28;46449;-63
2023/07/06 09:14:41;;;;;;;;;4.00;4.00;;;;;21.60;52.99;101373.06;4960785;28;45723;-63
2023/07/06 09:17:07;;;;;;;;;4.25;3.50;;;;;21.70;53.06;101367.00;4959657;28;45487;-63
2023/07/06 09:19:33;;;;;;;;;5.00;3.50;;;;;21.69;53.43;101354.41;4950024;28;45459;-63
2023/07/06 09:22:00;;;;;;;;;4.00;2.75;;;;;21.74;52.61;101350.38;4958334;28;47993;-63
2023/07/06 09:24:29;;;;;;;;;4.00;3.50;;;;;21.85;52.31;101368.63;4961483;28;45614;-63
2023/07/06 09:26:58;;;;;;;;;3.25;3.25;;;;;21.86;51.42;101366.81;4961635;28;45509;-63
2023/07/06 09:29:31;;;;;;;;;3.00;3.00;;;;;21.88;51.98;101367.56;4962128;28;45468;-63
2023/07/06 09:32:12;;;;;;;;;5.75;3.50;;;;;21.93;51.33;101370.81;4957450;28;47201;-63
2023/07/06 09:34:41;;;;;;;;;3.00;3.00;;;;;22.00;51.65;101369.41;4957689;28;45475;-63
2023/07/06 09:37:14;;;;;;;;;4.50;4.50;;;;;21.99;52.16;101370.41;4951132;28;45393;-63
2023/07/06 09:39:40;;;;;;;;;4.25;3.00;;;;;21.99;50.91;101363.09;4956920;28;45564;-63
2023/07/06 09:42:12;;;;;;;;;5.00;3.50;;;;;22.09;51.33;101367.91;4958296;28;46083;-63
2023/07/06 09:44:37;;;;;;;;;5.25;4.00;;;;;22.11;51.23;101368.66;4955776;28;45713;-63
2023/07/06 09:47:11;;;;;;;;;4.00;4.00;;;;;22.10;50.76;101364.19;4962898;28;45727;-63
2023/07/06 09:49:48;;;;;;;;;2.00;1.00;;;;;22.12;50.50;101359.50;4967684;28;45350;-63
2023/07/06 09:52:16;;;;;;;;;5.50;4.00;;;;;22.10;50.29;101361.47;4954783;28;46013;-63
2023/07/06 09:54:50;;;;;;;;;3.75;3.75;;;;;22.13;51.07;101367.53;4957177;28;45992;-62
2023/07/06 09:57:16;;;;;;;;;6.25;5.25;;;;;22.15;50.54;101353.84;4953077;28;46638;-63
2023/07/06 09:59:47;;;;;;;;;3.75;2.75;;;;;22.15;50.18;101353.84;4963416;28;45483;-63
2023/07/06 10:02:15;;;;;;;;;7.00;4.00;;;;;22.23;50.60;101361.47;4959856;28;46375;-63
2023/07/06 10:05:02;;;;;;;;;6.25;5.75;;;;;22.31;49.71;101362.69;4959325;28;45419;-63
2023/07/06 10:07:48;;;;;;;;;3.25;3.25;;;;;22.32;49.85;101360.81;4953447;28;45362;-62
2023/07/06 10:10:35;;;;;;;;;5.00;3.00;;;;;22.37;49.40;101353.22;4959217;28;45387;-63
2023/07/06 10:13:09;;;;;;;;;3.50;3.00;;;;;22.35;48.26;101345.16;4959124;28;46309;-63
2023/07/06 10:15:50;;;;;;;;;4.00;4.00;;;;;22.41;48.73;101356.59;4956411;28;45441;-63
2023/07/06 10:18:27;;;;;;;;;2.50;2.25;;;;;22.39;49.11;101354.84;4957496;28;45580;-62
2023/07/06 10:20:58;;;;;;;;;3.00;3.00;;;;;22.38;48.51;101347.66;4957868;28;45598;-62
2023/07/06 10:23:32;;;;;;;;;3.00;3.00;;;;;22.46;49.01;101355.25;4945895;28;45716;-63
2023/07/06 10:26:17;;;;;;;;;2.00;2.00;;;;;22.53;48.45;101348.38;4951772;28;46045;-62
2023/07/06 10:28:48;;;;;;;;;3.50;2.00;;;;;22.55;48.01;101345.53;4962706;28;45583;-62
2023/07/06 10:31:18;;;;;;;;;3.00;2.00;;;;;22.50;47.87;101343.19;4954376;28;45539;-62
2023/07/06 10:34:17;;;;;;;;;5.50;4.50;;;;;22.55;46.87;101348.25;4958172;28;45393;-62
2023/07/06 10:36:44;;;;;;;;;2.50;2.00;;;;;22.59;46.89;101344.34;4932899;28;45340;-63
2023/07/06 10:39:25;;;;;;;;;3.00;2.75;;;;;22.64;46.99;101344.88;4957418;28;45594;-62
2023/07/06 10:42:00;;;;;;;;;5.50;3.00;;;;;22.69;46.75;101344.56;4955734;28;45533;-62
2023/07/06 10:44:43;;;;;;;;;9.75;9.00;;;;;22.75;46.85;101341.34;4960287;28;46008;-62
2023/07/06 10:47:28;;;;;;;;;2.75;2.75;;;;;22.82;47.29;101344.47;4961246;28;45567;-62
2023/07/06 10:50:12;;;;;;;;;3.75;3.75;;;;;22.86;46.30;101343.28;4958101;28;45594;-62
2023/07/06 10:52:40;;;;;;;;;3.50;2.25;;;;;22.87;46.20;101343.19;4961301;28;45421;-62
2023/07/06 10:55:23;;;;;;;;;3.00;3.00;;;;;22.92;46.29;101338.25;4960795;28;46381;-62
2023/07/06 10:57:53;;;;;;;;;3.75;2.25;;;;;22.91;45.19;101336.50;4952829;28;46013;-62
2023/07/06 11:00:29;;;;;;;;;4.00;3.00;;;;;22.98;45.01;101344.22;4961122;28;45439;-62
2023/07/06 11:02:56;;;;;;;;;5.50;4.00;;;;;22.99;45.11;101324.16;4977119;28;45333;-62
2023/07/06 11:05:30;;;;;;;;;2.00;2.00;;;;;22.96;45.26;101314.38;4953782;28;46247;-62
2023/07/06 11:08:05;;;;;;;;;2.75;2.75;;;;;23.12;45.13;101336.78;4959505;28;45478;-62
2023/07/06 11:10:39;;;;;;;;;3.00;3.00;;;;;23.18;45.07;101338.16;4952362;28;45552;-62
2023/07/06 11:13:04;;;;;;;;;2.75;2.75;;;;;23.24;44.52;101325.94;4961097;28;45323;-62
2023/07/06 11:15:41;;;;;;;;;3.00;3.00;;;;;23.29;45.03;101338.22;4966610;28;45474;-62
2023/07/06 11:18:18;;;;;;;;;2.50;2.50;;;;;23.34;44.89;101326.06;4953149;28;45399;-62
2023/07/06 11:20:52;;;;;;;;;2.50;2.50;;;;;23.35;44.88;101322.38;4959966;28;45493;-62
2023/07/06 11:23:32;;;;;;;;;3.00;2.00;;;;;23.41;44.52;101324.63;4959960;28;45401;-62
2023/07/06 11:26:00;;;;;;;;;2.25;2.00;;;;;23.46;43.50;101317.81;4959661;28;45462;-62
2023/07/06 11:28:27;;;;;;;;;4.75;3.00;;;;;23.48;43.61;101324.03;4969132;28;45342;-62
2023/07/06 11:31:01;;;;;;;;;3.00;3.00;;;;;23.50;43.35;101315.72;4970592;28;45404;-62
2023/07/06 11:34:03;;;;;;;;;3.25;3.25;;;;;23.51;43.94;101320.19;4958963;28;45300;-62